Time;durP1;ratioP1;P1;durP2;ratioP2;P2;SDS_P1;SDS_P2;PMS_P1;PMS_P2;Temp;Humidity;BMP_temperature;BMP_pressure;BME280_temperature;BME280_humidity;BME280_pressure;Samples;Min_cycle;Max_cycle;Signal;HPM_P1;HPM_P2
2021/07/15 00:00:46;;;;;;;7.90;3.00;;;15.50;99.90;;;;;;6183471;23;20234;-75
2021/07/15 00:03:20;;;;;;;7.87;3.07;;;15.50;99.90;;;;;;6183422;23;20222;-75
2021/07/15 00:05:48;;;;;;;9.27;3.15;;;15.30;99.90;;;;;;6184141;23;20222;-75
2021/07/15 00:08:18;;;;;;;9.13;3.45;;;15.30;99.90;;;;;;6183399;23;20646;-74
2021/07/15 00:10:50;;;;;;;4.22;2.92;;;15.30;99.90;;;;;;6183547;23;20180;-75
2021/07/15 00:13:19;;;;;;;7.28;3.80;;;15.30;99.90;;;;;;6183652;23;20215;-75
2021/07/15 00:15:48;;;;;;;10.03;4.80;;;15.40;99.90;;;;;;6183962;23;20156;-75
2021/07/15 00:18:22;;;;;;;11.70;5.43;;;15.40;99.90;;;;;;6183331;23;20257;-74
2021/07/15 00:20:50;;;;;;;11.13;6.65;;;15.40;99.90;;;;;;6183652;23;20156;-74
2021/07/15 00:23:17;;;;;;;13.10;6.07;;;15.30;99.90;;;;;;6183694;23;20159;-75
2021/07/15 00:25:46;;;;;;;7.38;5.50;;;15.20;99.90;;;;;;6183722;23;20532;-75
2021/07/15 00:28:15;;;;;;;12.23;4.77;;;15.20;99.90;;;;;;6183880;23;20161;-75
2021/07/15 00:30:44;;;;;;;9.02;3.97;;;15.20;99.90;;;;;;6182457;23;20187;-75
2021/07/15 00:33:11;;;;;;;8.48;4.28;;;15.30;99.90;;;;;;6183444;23;20160;-75
2021/07/15 00:35:39;;;;;;;4.20;3.65;;;15.30;99.90;;;;;;6183442;23;20556;-74
2021/07/15 00:38:08;;;;;;;8.48;3.47;;;15.20;99.90;;;;;;6182618;23;20513;-74
2021/07/15 00:40:36;;;;;;;5.33;3.60;;;15.20;99.90;;;;;;6184143;23;20599;-74
2021/07/15 00:43:04;;;;;;;8.80;3.70;;;15.40;99.90;;;;;;6183256;23;20533;-75
2021/07/15 00:45:32;;;;;;;4.57;3.70;;;15.30;99.90;;;;;;6183237;23;20156;-75
2021/07/15 00:48:01;;;;;;;4.67;4.20;;;15.20;99.90;;;;;;6185053;23;20196;-75
2021/07/15 00:50:30;;;;;;;10.87;4.20;;;15.20;99.90;;;;;;6185895;23;20164;-75
2021/07/15 00:52:57;;;;;;;5.30;4.10;;;15.30;99.90;;;;;;6185104;23;20554;-75
2021/07/15 00:55:28;;;;;;;10.50;7.20;;;15.30;99.90;;;;;;6185526;23;20163;-75
2021/07/15 00:57:55;;;;;;;10.15;6.03;;;15.40;99.90;;;;;;6185360;23;20214;-75
2021/07/15 01:00:23;;;;;;;10.50;6.32;;;15.50;99.90;;;;;;6185152;23;20168;-75
2021/07/15 01:02:51;;;;;;;11.70;6.90;;;15.50;99.90;;;;;;6184852;23;20231;-75
2021/07/15 01:05:23;;;;;;;11.03;6.47;;;15.60;99.90;;;;;;6184888;23;20613;-75
2021/07/15 01:07:50;;;;;;;10.03;6.13;;;15.80;99.90;;;;;;6185394;23;20163;-75
2021/07/15 01:10:21;;;;;;;8.30;5.40;;;15.70;99.90;;;;;;6184275;23;20195;-74
2021/07/15 01:13:13;;;;;;;6.55;4.82;;;15.80;99.90;;;;;;6185632;23;20152;-74
2021/07/15 01:15:55;;;;;;;5.53;4.23;;;15.80;99.90;;;;;;6184920;23;20157;-74
2021/07/15 01:18:31;;;;;;;7.85;4.15;;;15.80;99.90;;;;;;6185231;23;20258;-75
2021/07/15 01:21:18;;;;;;;7.67;3.33;;;15.70;99.90;;;;;;6158908;23;20214;-75
2021/07/15 01:24:14;;;;;;;4.72;3.85;;;15.60;99.90;;;;;;6185133;23;20156;-75
2021/07/15 01:27:08;;;;;;;5.75;3.90;;;15.60;99.90;;;;;;6162234;23;20215;-75
2021/07/15 01:29:52;;;;;;;6.18;3.40;;;15.50;99.90;;;;;;6161184;23;20476;-75
2021/07/15 01:32:24;;;;;;;6.80;3.63;;;15.50;99.90;;;;;;6184451;23;20222;-75
2021/07/15 01:34:53;;;;;;;7.67;3.60;;;15.60;99.90;;;;;;6184783;23;20210;-73
2021/07/15 01:37:20;;;;;;;6.60;3.80;;;15.50;99.90;;;;;;6185236;23;20230;-73
2021/07/15 01:39:49;;;;;;;6.15;3.53;;;15.40;99.90;;;;;;6184640;23;20180;-73
2021/07/15 01:42:19;;;;;;;5.50;3.50;;;15.50;99.90;;;;;;6185070;23;20207;-73
2021/07/15 01:44:47;;;;;;;7.55;3.90;;;15.40;99.90;;;;;;6184567;23;20167;-73
2021/07/15 01:47:15;;;;;;;7.20;3.60;;;15.40;99.90;;;;;;6185327;23;20583;-73
2021/07/15 01:49:44;;;;;;;8.43;3.70;;;15.50;99.90;;;;;;6184143;23;20541;-73
2021/07/15 01:52:14;;;;;;;21.10;3.67;;;15.40;99.90;;;;;;6184925;23;20219;-73
2021/07/15 01:54:42;;;;;;;7.05;3.50;;;15.30;99.90;;;;;;6184627;23;20176;-73
2021/07/15 01:57:12;;;;;;;9.50;5.00;;;15.30;99.90;;;;;;6184254;23;20160;-73
2021/07/15 01:59:42;;;;;;;6.40;3.87;;;15.30;99.90;;;;;;6184984;23;20207;-72
2021/07/15 02:02:09;;;;;;;7.60;3.70;;;15.30;99.90;;;;;;6184606;23;20598;-72
2021/07/15 02:04:39;;;;;;;8.63;4.10;;;15.20;99.90;;;;;;6184675;23;20157;-72
2021/07/15 02:07:09;;;;;;;11.13;5.73;;;15.30;99.90;;;;;;6184448;23;20180;-72
2021/07/15 02:09:38;;;;;;;12.83;4.57;;;15.30;99.90;;;;;;6184450;23;20186;-72
2021/07/15 02:12:06;;;;;;;17.50;4.43;;;15.30;99.90;;;;;;6185000;23;20179;-72
2021/07/15 02:14:35;;;;;;;24.50;4.77;;;14.60;99.90;;;;;;6184542;23;20184;-72
2021/07/15 02:17:03;;;;;;;16.20;5.30;;;14.30;99.90;;;;;;6184340;23;20160;-72
2021/07/15 02:19:31;;;;;;;9.63;4.63;;;14.40;99.90;;;;;;6184034;23;20233;-72
2021/07/15 02:21:59;;;;;;;15.50;4.70;;;14.50;99.90;;;;;;6184471;23;20497;-73
2021/07/15 02:24:32;;;;;;;14.60;4.30;;;14.50;99.90;;;;;;6184684;23;20235;-72
2021/07/15 02:27:00;;;;;;;11.13;4.60;;;14.30;99.90;;;;;;6184673;23;20153;-72
2021/07/15 02:29:27;;;;;;;21.90;4.53;;;14.30;99.90;;;;;;6184260;23;20160;-73
2021/07/15 02:31:58;;;;;;;19.10;4.50;;;14.20;99.90;;;;;;6184221;23;20160;-73
2021/07/15 02:34:29;;;;;;;12.30;5.20;;;14.20;99.90;;;;;;6184814;23;20175;-73
2021/07/15 02:36:59;;;;;;;13.17;5.33;;;14.40;99.90;;;;;;6184486;23;20172;-73
2021/07/15 02:39:28;;;;;;;14.20;5.80;;;14.70;99.90;;;;;;6184795;23;20184;-72
2021/07/15 02:41:55;;;;;;;23.27;6.00;;;15.00;99.90;;;;;;6184364;23;20598;-73
2021/07/15 02:44:23;;;;;;;9.63;5.67;;;15.20;99.90;;;;;;6184029;23;20210;-73
2021/07/15 02:46:50;;;;;;;8.27;4.90;;;15.30;99.90;;;;;;6184334;23;20164;-72
2021/07/15 02:49:17;;;;;;;16.40;6.00;;;15.30;99.90;;;;;;6184463;23;20230;-73
2021/07/15 02:51:44;;;;;;;12.57;6.23;;;15.30;99.90;;;;;;6183706;23;20538;-73
2021/07/15 02:54:12;;;;;;;11.80;6.10;;;15.40;99.90;;;;;;6183718;23;20156;-72
2021/07/15 02:56:45;;;;;;;9.60;4.93;;;15.40;99.90;;;;;;6178640;23;20196;-69
2021/07/15 02:59:19;;;;;;;11.07;7.13;;;15.50;99.90;;;;;;6153375;23;20258;-69
2021/07/15 03:01:50;;;;;;;12.67;6.27;;;15.50;99.90;;;;;;6154244;23;20589;-69
2021/07/15 03:04:25;;;;;;;9.47;5.53;;;15.60;99.90;;;;;;6154637;23;20579;-69
2021/07/15 03:06:53;;;;;;;12.97;6.60;;;15.60;99.90;;;;;;6154726;23;20167;-69
2021/07/15 03:09:25;;;;;;;13.93;5.72;;;15.60;99.90;;;;;;6154420;23;20160;-69
2021/07/15 03:12:00;;;;;;;10.50;4.90;;;15.70;99.90;;;;;;6153453;23;20164;-69
2021/07/15 03:14:30;;;;;;;8.47;4.93;;;15.70;99.90;;;;;;6154405;23;20172;-69
2021/07/15 03:16:57;;;;;;;10.43;4.57;;;15.70;99.90;;;;;;6154399;23;20583;-69
2021/07/15 03:19:28;;;;;;;7.95;4.60;;;15.80;99.90;;;;;;6153988;23;20191;-69
2021/07/15 03:21:59;;;;;;;11.77;6.33;;;15.90;99.90;;;;;;6153458;23;20172;-69
2021/07/15 03:24:28;;;;;;;12.50;6.03;;;15.90;99.90;;;;;;6154995;23;20168;-69
2021/07/15 03:26:59;;;;;;;8.50;5.00;;;16.00;99.90;;;;;;6154760;23;20449;-69
2021/07/15 03:29:26;;;;;;;8.37;4.70;;;16.00;99.90;;;;;;6154543;23;20465;-69
2021/07/15 03:31:55;;;;;;;10.82;4.70;;;16.00;99.90;;;;;;6153506;23;20160;-69
2021/07/15 03:34:23;;;;;;;9.03;4.50;;;16.00;99.90;;;;;;6154195;23;20161;-69
2021/07/15 03:36:51;;;;;;;8.35;4.93;;;16.00;99.90;;;;;;6154145;23;20188;-69
2021/07/15 03:39:18;;;;;;;12.60;6.00;;;16.10;99.90;;;;;;6154211;23;20553;-69
2021/07/15 03:41:47;;;;;;;9.47;4.47;;;16.10;99.90;;;;;;6153294;23;20164;-69
2021/07/15 03:44:16;;;;;;;9.10;4.75;;;16.10;99.90;;;;;;6154327;23;20165;-69
2021/07/15 03:46:45;;;;;;;11.77;5.47;;;16.10;99.90;;;;;;6154453;23;20161;-69
2021/07/15 03:49:15;;;;;;;14.25;6.15;;;16.10;99.90;;;;;;6154482;23;20157;-69
2021/07/15 03:51:43;;;;;;;16.45;6.97;;;16.10;99.90;;;;;;6153431;23;20452;-69
2021/07/15 03:54:11;;;;;;;9.88;4.13;;;16.10;99.90;;;;;;6154555;23;20175;-69
2021/07/15 03:56:39;;;;;;;8.13;3.97;;;16.20;99.90;;;;;;6153854;23;20519;-69
2021/07/15 03:59:06;;;;;;;7.45;3.70;;;16.20;99.90;;;;;;6154256;23;20594;-69
2021/07/15 04:01:35;;;;;;;10.02;4.32;;;16.20;99.90;;;;;;6153236;23;20160;-69
2021/07/15 04:04:07;;;;;;;16.27;9.50;;;16.20;99.90;;;;;;6154531;23;20587;-69
2021/07/15 04:06:36;;;;;;;11.80;7.10;;;16.20;99.90;;;;;;6154029;23;20199;-69
2021/07/15 04:09:06;;;;;;;18.13;5.25;;;16.30;99.90;;;;;;6154018;23;20168;-69
2021/07/15 04:11:34;;;;;;;7.93;4.30;;;16.20;99.90;;;;;;6153455;23;20483;-69
2021/07/15 04:14:07;;;;;;;9.07;4.30;;;16.30;99.90;;;;;;6154139;23;20598;-69
2021/07/15 04:16:46;;;;;;;11.75;4.82;;;16.40;99.90;;;;;;6154438;23;20167;-69
2021/07/15 04:19:14;;;;;;;8.38;3.30;;;16.40;99.90;;;;;;6153469;23;20180;-69
2021/07/15 04:21:42;;;;;;;14.32;4.32;;;16.40;99.90;;;;;;6154891;23;20606;-69
2021/07/15 04:24:10;;;;;;;6.40;3.60;;;16.40;99.90;;;;;;6155935;23;20496;-69
2021/07/15 04:26:38;;;;;;;10.88;3.33;;;16.40;99.90;;;;;;6155954;23;20161;-69
2021/07/15 04:29:05;;;;;;;13.57;5.22;;;16.50;99.90;;;;;;6155713;23;20165;-69
2021/07/15 04:31:54;;;;;;;8.30;3.42;;;16.60;99.90;;;;;;6155509;23;20167;-69
2021/07/15 04:34:21;;;;;;;7.28;3.67;;;16.60;99.90;;;;;;6155818;23;20168;-69
2021/07/15 04:36:49;;;;;;;7.45;3.83;;;16.70;99.90;;;;;;6155946;23;20165;-69
2021/07/15 04:39:18;;;;;;;6.97;4.05;;;16.70;99.90;;;;;;6156241;23;20195;-69
2021/07/15 04:41:44;;;;;;;7.20;3.42;;;16.90;99.90;;;;;;6155163;23;20168;-70
2021/07/15 04:44:12;;;;;;;6.28;3.53;;;17.10;99.90;;;;;;6155777;23;20161;-69
2021/07/15 04:46:39;;;;;;;10.43;3.92;;;17.10;99.90;;;;;;6155277;23;20165;-69
2021/07/15 04:49:08;;;;;;;7.10;3.80;;;17.10;99.90;;;;;;6156160;23;20164;-69
2021/07/15 04:51:40;;;;;;;7.57;3.08;;;17.10;99.90;;;;;;6154641;23;20161;-69
2021/07/15 04:54:08;;;;;;;10.13;3.97;;;17.10;99.90;;;;;;6155987;23;20183;-69
2021/07/15 04:56:36;;;;;;;6.10;4.28;;;17.20;99.90;;;;;;6155468;23;20165;-69
2021/07/15 04:59:04;;;;;;;5.88;3.55;;;17.20;99.90;;;;;;6155754;23;20167;-69
2021/07/15 05:01:32;;;;;;;9.10;3.88;;;17.30;99.90;;;;;;6154980;23;20165;-69
2021/07/15 05:03:58;;;;;;;9.48;3.60;;;17.40;99.90;;;;;;6155380;23;20168;-69
2021/07/15 05:06:27;;;;;;;10.57;3.63;;;17.40;99.90;;;;;;6155871;23;20160;-69
2021/07/15 05:08:53;;;;;;;7.70;3.75;;;17.50;99.90;;;;;;6155720;23;20168;-69
2021/07/15 05:11:20;;;;;;;7.63;3.50;;;17.70;99.90;;;;;;6154915;23;20587;-69
2021/07/15 05:13:47;;;;;;;7.07;3.42;;;18.10;99.90;;;;;;6155475;23;20171;-69
2021/07/15 05:16:14;;;;;;;6.80;3.35;;;18.00;99.90;;;;;;6155105;23;20161;-70
2021/07/15 05:18:42;;;;;;;5.40;3.30;;;18.10;99.90;;;;;;6155851;23;20190;-69
2021/07/15 05:21:09;;;;;;;9.57;3.28;;;18.40;99.90;;;;;;6154471;23;20189;-69
2021/07/15 05:23:38;;;;;;;9.27;3.80;;;18.60;99.90;;;;;;6155761;23;20161;-69
2021/07/15 05:26:04;;;;;;;7.40;3.28;;;18.70;99.90;;;;;;6155111;23;20160;-69
2021/07/15 05:28:31;;;;;;;7.53;3.40;;;18.40;99.90;;;;;;6155772;23;20161;-69
2021/07/15 05:30:58;;;;;;;7.70;2.88;;;18.20;99.90;;;;;;6154151;23;20175;-69
2021/07/15 05:33:25;;;;;;;6.25;3.28;;;18.00;99.90;;;;;;6155242;23;20605;-69
2021/07/15 05:35:52;;;;;;;11.88;3.30;;;18.00;99.90;;;;;;6155294;23;20161;-69
2021/07/15 05:38:19;;;;;;;5.68;3.25;;;18.50;99.90;;;;;;6155468;23;20603;-69
2021/07/15 05:40:47;;;;;;;6.20;2.90;;;18.60;99.90;;;;;;6154321;23;20188;-69
2021/07/15 05:43:14;;;;;;;8.30;3.35;;;18.50;99.90;;;;;;6155260;23;20160;-69
2021/07/15 05:45:41;;;;;;;5.30;3.10;;;18.50;99.90;;;;;;6155203;23;20160;-69
2021/07/15 05:48:08;;;;;;;3.40;2.88;;;18.50;99.90;;;;;;6155293;23;20614;-69
2021/07/15 05:50:35;;;;;;;5.35;3.53;;;18.60;99.90;;;;;;6154419;23;20165;-69
2021/07/15 05:53:01;;;;;;;6.63;2.83;;;19.50;99.90;;;;;;6155542;23;20165;-69
2021/07/15 05:55:28;;;;;;;5.00;3.10;;;21.80;99.90;;;;;;6155551;23;20663;-69
2021/07/15 05:57:57;;;;;;;13.60;3.22;;;23.40;99.90;;;;;;6155128;23;20221;-69
2021/07/15 06:00:23;;;;;;;8.75;2.47;;;22.30;99.90;;;;;;6154152;23;20184;-69
2021/07/15 06:02:51;;;;;;;9.45;2.75;;;22.20;99.90;;;;;;6155382;23;20260;-69
2021/07/15 06:05:18;;;;;;;8.70;2.67;;;20.40;99.90;;;;;;6154648;23;20247;-69
2021/07/15 06:07:45;;;;;;;6.30;3.63;;;19.80;99.90;;;;;;6155020;23;20173;-69
2021/07/15 06:10:12;;;;;;;4.75;2.70;;;19.40;99.90;;;;;;6154218;23;20256;-69
2021/07/15 06:12:39;;;;;;;3.25;2.30;;;19.30;99.90;;;;;;6154917;23;20171;-69
2021/07/15 06:15:08;;;;;;;3.08;2.10;;;19.20;99.90;;;;;;6155021;23;20486;-69
2021/07/15 06:17:35;;;;;;;4.93;2.33;;;19.20;99.90;;;;;;6154567;23;20165;-69
2021/07/15 06:20:03;;;;;;;5.00;2.30;;;19.10;99.90;;;;;;6154512;23;20497;-69
2021/07/15 06:22:29;;;;;;;2.78;2.53;;;19.10;99.90;;;;;;6154881;23;20168;-69
2021/07/15 06:24:56;;;;;;;2.70;2.50;;;19.20;99.90;;;;;;6154774;23;20456;-69
2021/07/15 06:27:23;;;;;;;2.30;2.20;;;19.10;99.90;;;;;;6154473;23;20164;-69
2021/07/15 06:29:50;;;;;;;2.42;2.22;;;19.10;99.90;;;;;;6154468;23;20180;-69
2021/07/15 06:32:18;;;;;;;2.30;2.10;;;19.10;99.90;;;;;;6154689;23;20167;-69
2021/07/15 06:34:46;;;;;;;2.75;2.45;;;19.10;99.90;;;;;;6154745;23;20239;-69
2021/07/15 06:37:13;;;;;;;2.60;2.40;;;19.00;99.90;;;;;;6154931;23;20161;-69
2021/07/15 06:39:40;;;;;;;3.47;2.88;;;18.90;99.90;;;;;;6153985;23;20169;-69
2021/07/15 06:42:07;;;;;;;3.88;2.55;;;19.00;99.90;;;;;;6155252;23;20475;-69
2021/07/15 06:44:34;;;;;;;3.40;2.80;;;19.00;99.90;;;;;;6154474;23;20485;-69
2021/07/15 06:47:04;;;;;;;2.50;2.30;;;19.10;99.90;;;;;;6154931;23;20160;-69
2021/07/15 06:49:32;;;;;;;4.13;2.60;;;18.90;99.90;;;;;;6154755;23;20161;-69
2021/07/15 06:51:59;;;;;;;4.63;2.80;;;19.00;99.90;;;;;;6154611;23;20457;-70
2021/07/15 06:54:26;;;;;;;3.15;2.80;;;19.00;99.90;;;;;;6155257;23;20192;-69
2021/07/15 06:56:52;;;;;;;2.97;2.60;;;19.10;99.90;;;;;;6153867;23;20184;-69
2021/07/15 06:59:19;;;;;;;2.63;2.42;;;19.10;99.90;;;;;;6154561;23;20243;-69
2021/07/15 07:01:46;;;;;;;2.75;2.17;;;19.20;99.90;;;;;;6153769;23;20194;-69
2021/07/15 07:04:13;;;;;;;2.70;2.50;;;19.20;99.90;;;;;;6154507;23;20161;-69
2021/07/15 07:06:41;;;;;;;3.80;2.35;;;19.20;99.90;;;;;;6154502;23;20588;-69
2021/07/15 07:09:08;;;;;;;3.30;2.40;;;19.20;99.90;;;;;;6154396;23;20243;-69
2021/07/15 07:11:35;;;;;;;2.90;2.70;;;19.30;99.90;;;;;;6154172;23;20588;-69
2021/07/15 07:14:02;;;;;;;2.60;2.40;;;19.40;99.90;;;;;;6153958;23;20172;-69
2021/07/15 07:16:29;;;;;;;3.05;2.80;;;19.40;99.90;;;;;;6154819;23;20480;-69
2021/07/15 07:18:56;;;;;;;3.28;2.53;;;19.40;99.90;;;;;;6153803;23;20164;-70
2021/07/15 07:21:22;;;;;;;2.33;2.17;;;19.40;99.90;;;;;;6153916;23;20184;-69
2021/07/15 07:23:51;;;;;;;4.47;2.80;;;19.50;99.90;;;;;;6154262;23;20165;-69
2021/07/15 07:26:17;;;;;;;2.60;2.30;;;19.50;99.90;;;;;;6154383;23;20247;-69
2021/07/15 07:28:44;;;;;;;2.83;2.60;;;19.50;99.90;;;;;;6154443;23;20165;-69
2021/07/15 07:31:11;;;;;;;3.13;2.40;;;19.70;99.90;;;;;;6153263;23;20247;-69
2021/07/15 07:33:38;;;;;;;2.60;2.40;;;19.70;99.90;;;;;;6154482;23;20611;-69
2021/07/15 07:36:05;;;;;;;2.92;2.20;;;19.70;99.90;;;;;;6154622;23;20587;-69
2021/07/15 07:38:32;;;;;;;4.38;2.38;;;19.90;99.90;;;;;;6154358;23;20168;-69
2021/07/15 07:41:00;;;;;;;2.20;2.00;;;20.00;99.90;;;;;;6153064;23;20263;-69
2021/07/15 07:43:27;;;;;;;2.15;2.05;;;20.10;99.90;;;;;;6154644;23;20595;-69
2021/07/15 07:45:54;;;;;;;2.20;2.10;;;20.10;99.90;;;;;;6153976;23;20194;-69
2021/07/15 07:48:21;;;;;;;2.15;2.03;;;20.00;99.90;;;;;;6154470;23;20533;-69
2021/07/15 07:50:49;;;;;;;3.00;2.50;;;20.20;99.90;;;;;;6153321;23;20161;-69
2021/07/15 07:53:15;;;;;;;1.88;1.77;;;20.20;99.90;;;;;;6154185;23;20160;-69
2021/07/15 07:55:43;;;;;;;2.20;2.10;;;20.20;99.90;;;;;;6154197;23;20164;-69
2021/07/15 07:58:12;;;;;;;2.33;2.13;;;20.20;99.90;;;;;;6153944;23;20422;-69
2021/07/15 08:00:39;;;;;;;2.10;2.00;;;20.30;99.90;;;;;;6153234;23;20185;-70
2021/07/15 08:03:06;;;;;;;2.33;2.13;;;20.50;99.90;;;;;;6153710;23;20161;-69
2021/07/15 08:05:36;;;;;;;2.40;2.28;;;20.50;99.90;;;;;;6154245;23;20683;-69
2021/07/15 08:08:02;;;;;;;1.85;1.70;;;20.60;99.90;;;;;;6154088;23;20243;-69
2021/07/15 08:10:29;;;;;;;2.83;2.35;;;20.60;99.90;;;;;;6153247;23;20240;-69
2021/07/15 08:12:56;;;;;;;2.63;1.95;;;20.70;99.90;;;;;;6153716;23;20180;-69
2021/07/15 08:15:25;;;;;;;2.13;2.00;;;21.00;99.90;;;;;;6153594;23;20167;-69
2021/07/15 08:17:51;;;;;;;2.03;1.92;;;21.00;99.90;;;;;;6153510;23;20167;-69
2021/07/15 08:20:18;;;;;;;1.83;1.67;;;21.00;99.90;;;;;;6153283;23;20165;-69
2021/07/15 08:22:45;;;;;;;1.88;1.77;;;21.00;99.90;;;;;;6154222;23;20187;-69
2021/07/15 08:25:14;;;;;;;1.70;1.60;;;21.00;99.90;;;;;;6153663;23;20169;-69
2021/07/15 08:27:41;;;;;;;2.08;1.52;;;21.00;99.90;;;;;;6153547;23;20171;-70
2021/07/15 08:30:10;;;;;;;1.40;1.38;;;21.10;99.90;;;;;;6153019;23;20171;-69
2021/07/15 08:32:38;;;;;;;2.05;1.95;;;21.10;99.90;;;;;;6153780;23;20402;-69
2021/07/15 08:35:06;;;;;;;1.40;1.40;;;21.10;99.90;;;;;;6154359;23;20161;-69
2021/07/15 08:37:33;;;;;;;1.85;1.75;;;21.00;99.90;;;;;;6153916;23;20171;-69
2021/07/15 08:40:00;;;;;;;1.58;1.48;;;21.20;99.90;;;;;;6153487;23;20171;-69
2021/07/15 08:42:28;;;;;;;1.48;1.45;;;21.30;99.90;;;;;;6153533;23;20190;-69
2021/07/15 08:44:55;;;;;;;2.00;1.90;;;21.50;99.90;;;;;;6154072;23;20180;-69
2021/07/15 08:47:22;;;;;;;2.00;1.80;;;21.60;99.90;;;;;;6154345;23;20489;-69
2021/07/15 08:49:51;;;;;;;3.67;1.77;;;21.60;99.90;;;;;;6153549;23;20166;-69
2021/07/15 08:52:18;;;;;;;3.42;1.70;;;21.60;99.90;;;;;;6154355;23;20168;-69
2021/07/15 08:54:55;;;;;;;2.13;1.50;;;21.60;99.90;;;;;;6151183;23;20243;-70
2021/07/15 08:57:21;;;;;;;2.72;1.65;;;21.50;99.90;;;;;;6151678;23;20215;-76
2021/07/15 08:59:48;;;;;;;3.35;1.98;;;21.90;99.90;;;;;;6152815;23;20192;-77
2021/07/15 09:02:18;;;;;;;1.73;1.63;;;22.40;99.90;;;;;;6154364;23;20618;-76
2021/07/15 09:04:45;;;;;;;1.90;1.42;;;22.60;99.90;;;;;;6153542;23;20165;-77
2021/07/15 09:07:14;;;;;;;1.70;1.60;;;23.10;99.90;;;;;;6153844;23;20180;-77
2021/07/15 09:09:41;;;;;;;5.28;1.70;;;23.30;99.90;;;;;;6155174;23;20167;-77
2021/07/15 09:12:08;;;;;;;1.75;1.60;;;23.80;99.90;;;;;;6155232;23;20247;-76
2021/07/15 09:14:45;;;;;;;3.08;1.40;;;24.20;99.90;;;;;;6156060;23;20183;-76
2021/07/15 09:17:12;;;;;;;2.50;1.48;;;24.60;99.90;;;;;;6155778;23;20458;-76
2021/07/15 09:19:40;;;;;;;1.80;1.70;;;25.10;99.90;;;;;;6155320;23;20559;-75
2021/07/15 09:22:11;;;;;;;1.98;1.70;;;25.50;99.90;;;;;;6155643;23;20184;-76
2021/07/15 09:24:41;;;;;;;1.50;1.20;;;25.20;99.90;;;;;;6155130;23;20161;-76
2021/07/15 09:27:15;;;;;;;1.80;1.52;;;25.00;99.90;;;;;;6155210;23;20167;-76
2021/07/15 09:29:43;;;;;;;1.48;1.38;;;25.20;99.90;;;;;;6155316;23;20167;-76
2021/07/15 09:32:14;;;;;;;1.48;1.40;;;25.30;99.90;;;;;;6155757;23;20163;-76
2021/07/15 09:34:41;;;;;;;2.25;1.55;;;25.60;99.90;;;;;;6155517;23;20186;-76
2021/07/15 09:37:13;;;;;;;2.55;1.50;;;25.20;99.90;;;;;;6155896;23;20595;-76
2021/07/15 09:39:51;;;;;;;3.20;1.50;;;25.40;99.90;;;;;;6154547;23;20161;-76
2021/07/15 09:42:20;;;;;;;1.90;1.50;;;26.50;99.90;;;;;;6155552;23;20184;-76
2021/07/15 09:44:48;;;;;;;1.88;1.30;;;26.10;99.90;;;;;;6155022;23;20622;-76
2021/07/15 09:47:39;;;;;;;1.40;1.30;;;25.90;99.90;;;;;;6155619;23;20171;-76
2021/07/15 09:50:26;;;;;;;1.20;1.10;;;26.20;99.90;;;;;;6154737;23;20240;-76
2021/07/15 09:52:54;;;;;;;1.25;1.17;;;26.50;99.90;;;;;;6155604;23;20215;-76
2021/07/15 09:55:24;;;;;;;1.13;1.13;;;26.90;99.90;;;;;;6155016;23;20168;-76
2021/07/15 09:58:02;;;;;;;1.40;1.30;;;26.90;99.90;;;;;;6155478;23;20184;-76
2021/07/15 10:00:34;;;;;;;1.38;1.38;;;27.60;99.90;;;;;;6155150;23;20167;-76
2021/07/15 10:03:01;;;;;;;1.42;1.23;;;27.70;99.90;;;;;;6155101;23;20180;-76
2021/07/15 10:05:28;;;;;;;1.17;1.15;;;27.70;99.90;;;;;;6155285;23;20160;-76
2021/07/15 10:08:06;;;;;;;1.50;1.40;;;28.30;99.90;;;;;;6154703;23;20165;-76
2021/07/15 10:10:35;;;;;;;2.83;1.35;;;27.80;99.90;;;;;;6154311;23;20606;-77
2021/07/15 10:13:13;;;;;;;2.15;1.10;;;27.20;99.90;;;;;;6154138;23;20161;-76
2021/07/15 10:15:41;;;;;;;1.92;1.25;;;26.50;99.90;;;;;;6154424;23;20617;-76
2021/07/15 10:18:08;;;;;;;1.30;1.30;;;26.30;99.90;;;;;;6153599;23;20654;-77
2021/07/15 10:20:36;;;;;;;2.67;1.60;;;25.50;99.90;;;;;;6154223;23;20584;-76
2021/07/15 10:23:04;;;;;;;1.10;1.10;;;25.10;99.90;;;;;;6154387;23;20184;-76
2021/07/15 10:25:31;;;;;;;1.52;1.42;;;25.90;99.90;;;;;;6154010;23;20231;-76
2021/07/15 10:27:59;;;;;;;1.20;1.20;;;26.30;99.90;;;;;;6154589;23;20482;-76
2021/07/15 10:30:28;;;;;;;1.25;1.20;;;25.90;99.90;;;;;;6153789;23;20643;-76
2021/07/15 10:32:56;;;;;;;2.65;1.42;;;26.70;99.90;;;;;;6154310;23;20267;-76
2021/07/15 10:35:25;;;;;;;1.00;1.00;;;27.10;99.90;;;;;;6153980;23;20555;-77
2021/07/15 10:37:58;;;;;;;2.80;1.45;;;27.20;99.90;;;;;;6154212;23;20259;-77
2021/07/15 10:40:25;;;;;;;1.40;1.30;;;27.20;99.90;;;;;;6153990;23;20156;-77
2021/07/15 10:42:54;;;;;;;3.60;1.50;;;27.60;99.90;;;;;;6153576;23;20685;-77
2021/07/15 10:45:22;;;;;;;1.05;1.05;;;27.80;99.90;;;;;;6153845;23;20161;-77
2021/07/15 10:47:54;;;;;;;3.17;1.35;;;28.10;99.90;;;;;;6153515;23;20161;-76
2021/07/15 10:50:22;;;;;;;1.15;1.10;;;27.80;99.90;;;;;;6153967;23;20176;-76
2021/07/15 10:52:50;;;;;;;1.15;1.15;;;27.00;99.90;;;;;;6153721;23;20176;-77
2021/07/15 10:55:18;;;;;;;1.98;1.20;;;26.20;99.90;;;;;;6154886;23;20231;-77
2021/07/15 10:57:50;;;;;;;1.55;1.45;;;26.30;99.90;;;;;;6153382;23;20690;-77
2021/07/15 11:00:38;;;;;;;1.35;1.25;;;26.60;99.90;;;;;;6153316;23;20231;-77
2021/07/15 11:03:17;;;;;;;1.33;1.25;;;26.70;99.90;;;;;;6153501;23;20191;-77
2021/07/15 11:05:49;;;;;;;1.13;1.13;;;26.80;99.90;;;;;;6153709;23;20172;-76
2021/07/15 11:08:19;;;;;;;1.55;1.40;;;26.60;99.90;;;;;;6154274;23;20160;-77
2021/07/15 11:10:58;;;;;;;1.88;1.30;;;26.30;99.90;;;;;;6153835;23;20167;-76
2021/07/15 11:13:28;;;;;;;2.80;1.40;;;25.80;99.90;;;;;;6154291;23;20157;-77
2021/07/15 11:15:57;;;;;;;1.40;1.40;;;25.90;99.90;;;;;;6153260;23;20237;-77
2021/07/15 11:18:57;;;;;;;1.55;1.38;;;26.10;99.90;;;;;;6153199;23;20666;-77
2021/07/15 11:21:34;;;;;;;1.27;1.23;;;26.90;99.90;;;;;;6104117;23;20239;-76
2021/07/15 11:24:50;;;;;;;2.83;1.17;;;27.50;99.90;;;;;;6155601;23;20239;-77
2021/07/15 11:27:32;;;;;;;2.88;1.15;;;27.70;99.90;;;;;;6154493;23;20165;-77
2021/07/15 11:29:59;;;;;;;1.13;1.02;;;27.80;99.90;;;;;;6154512;23;20161;-77
2021/07/15 11:32:28;;;;;;;1.00;1.00;;;28.00;99.90;;;;;;6155154;23;20163;-77
2021/07/15 11:34:56;;;;;;;3.03;1.17;;;28.50;99.90;;;;;;6155365;23;20161;-76
2021/07/15 11:37:39;;;;;;;1.13;1.10;;;27.90;99.90;;;;;;6153114;23;20191;-76
2021/07/15 11:40:28;;;;;;;1.13;1.13;;;28.50;99.90;;;;;;6152991;23;20203;-76
2021/07/15 11:42:54;;;;;;;1.00;1.00;;;28.90;99.90;;;;;;6153303;23;20200;-75
2021/07/15 11:45:21;;;;;;;1.40;1.13;;;28.10;99.90;;;;;;6154791;23;20168;-75
2021/07/15 11:47:53;;;;;;;1.10;1.10;;;28.80;99.90;;;;;;6154281;23;20160;-75
2021/07/15 11:50:33;;;;;;;1.45;1.35;;;29.10;99.90;;;;;;6153246;23;20587;-75
2021/07/15 11:53:17;;;;;;;1.35;1.25;;;28.50;99.90;;;;;;6147893;23;20588;-75
2021/07/15 11:55:45;;;;;;;1.15;1.10;;;28.20;99.90;;;;;;6150270;23;20259;-75
2021/07/15 11:58:46;;;;;;;1.27;1.05;;;28.90;99.90;;;;;;6148859;23;20188;-75
2021/07/15 12:01:16;;;;;;;2.80;1.23;;;28.90;99.90;;;;;;6149925;23;20184;-75
2021/07/15 12:03:58;;;;;;;1.85;1.23;;;28.90;99.90;;;;;;6150690;23;20215;-75
2021/07/15 12:06:26;;;;;;;4.07;1.17;;;29.40;99.90;;;;;;6150307;23;20191;-75
2021/07/15 12:08:52;;;;;;;1.42;1.20;;;29.10;99.90;;;;;;6149306;23;20184;-75
2021/07/15 12:11:20;;;;;;;1.35;1.25;;;27.80;99.90;;;;;;6149349;23;20509;-75
2021/07/15 12:13:51;;;;;;;1.45;1.40;;;27.60;99.90;;;;;;6153689;23;20161;-75
2021/07/15 12:16:20;;;;;;;1.30;1.13;;;28.30;99.90;;;;;;6154124;23;20542;-75
2021/07/15 12:18:47;;;;;;;1.00;1.00;;;28.90;99.90;;;;;;6146921;23;20192;-75
2021/07/15 12:21:18;;;;;;;1.83;1.10;;;28.40;99.90;;;;;;6149229;23;20193;-75
2021/07/15 12:23:47;;;;;;;1.30;1.20;;;27.70;99.90;;;;;;6149206;23;20238;-74
2021/07/15 12:26:17;;;;;;;1.70;1.23;;;27.70;99.90;;;;;;6151767;23;20184;-75
2021/07/15 12:28:46;;;;;;;1.98;1.88;;;28.40;99.90;;;;;;6151330;23;20180;-75
2021/07/15 12:31:14;;;;;;;1.55;1.20;;;28.50;99.90;;;;;;6150995;23;20184;-75
2021/07/15 12:33:44;;;;;;;2.03;1.40;;;29.10;99.90;;;;;;6150663;23;20267;-75
2021/07/15 12:36:12;;;;;;;1.50;1.35;;;29.10;99.90;;;;;;6151773;23;20655;-75
2021/07/15 12:38:41;;;;;;;1.38;1.25;;;29.20;99.90;;;;;;6151334;23;20188;-75
2021/07/15 12:41:11;;;;;;;2.03;1.38;;;29.00;99.90;;;;;;6150954;23;20186;-75
2021/07/15 12:46:10;;;;;;;1.60;1.50;;;28.60;99.90;;;;;;6152413;23;20187;-76
2021/07/15 12:48:42;;;;;;;1.13;1.13;;;28.60;99.90;;;;;;6154440;23;20655;-76
2021/07/15 12:51:09;;;;;;;1.63;1.42;;;28.50;99.90;;;;;;6155871;23;20808;-76
2021/07/15 12:53:39;;;;;;;1.25;1.08;;;28.60;99.90;;;;;;6156828;23;20459;-76
2021/07/15 12:56:08;;;;;;;1.20;1.10;;;28.60;99.90;;;;;;6157132;23;20160;-77
2021/07/15 12:58:35;;;;;;;1.30;1.30;;;28.10;99.90;;;;;;6155934;23;20188;-76
2021/07/15 13:01:04;;;;;;;1.23;1.08;;;28.20;99.90;;;;;;6155959;23;20172;-76